Time;durP1;ratioP1;P1;durP2;ratioP2;P2;SDS_P1;SDS_P2;PMS_P1;PMS_P2;Temp;Humidity;BMP_temperature;BMP_pressure;BME280_temperature;BME280_humidity;BME280_pressure;Samples;Min_cycle;Max_cycle;Signal;HPM_P1;HPM_P2
2023/01/22 00:02:29;;;;;;;33.13;17.10;;;0.40;99.90;;;;;;5001375;28;20056;-88
2023/01/22 00:05:13;;;;;;;38.87;19.60;;;-1.40;99.90;;;;;;4996882;28;20042;-89
2023/01/22 00:07:39;;;;;;;34.20;17.83;;;-1.00;99.90;;;;;;4999520;28;20157;-88
2023/01/22 00:10:44;;;;;;;32.63;17.27;;;-1.30;99.90;;;;;;5029307;28;20054;-88
2023/01/22 00:13:09;;;;;;;31.33;15.67;;;-0.60;99.90;;;;;;5013999;28;20405;-88
2023/01/22 00:15:38;;;;;;;33.53;16.93;;;-0.90;99.90;;;;;;5014072;28;20056;-89
2023/01/22 00:18:03;;;;;;;34.47;17.67;;;-1.30;99.90;;;;;;4996483;28;20529;-88
2023/01/22 00:20:37;;;;;;;36.43;16.47;;;1.00;99.90;;;;;;5013199;28;20056;-88
2023/01/22 00:23:22;;;;;;;36.20;16.47;;;0.10;99.90;;;;;;4992758;28;20567;-89
2023/01/22 00:26:23;;;;;;;33.70;17.67;;;-0.10;99.90;;;;;;4993136;28;20057;-89
2023/01/22 00:28:52;;;;;;;31.23;15.77;;;-1.60;99.90;;;;;;4989902;28;20054;-89
2023/01/22 00:31:33;;;;;;;38.70;18.33;;;-0.30;99.90;;;;;;4993100;28;20483;-88
2023/01/22 00:33:59;;;;;;;36.20;16.63;;;-1.60;99.90;;;;;;4992768;28;20073;-89
2023/01/22 00:36:30;;;;;;;35.80;17.37;;;-0.80;99.90;;;;;;4992819;28;20070;-89
2023/01/22 00:39:01;;;;;;;33.80;15.77;;;-1.70;99.90;;;;;;4993472;28;20110;-88
2023/01/22 00:41:40;;;;;;;36.83;16.87;;;-1.60;99.90;;;;;;4991648;28;20062;-89
2023/01/22 00:44:21;;;;;;;34.27;16.97;;;-1.10;99.90;;;;;;4992950;28;20142;-88
2023/01/22 00:46:51;;;;;;;37.87;18.33;;;-1.50;99.90;;;;;;5010694;28;20049;-89
2023/01/22 00:49:23;;;;;;;34.73;17.10;;;-1.60;99.90;;;;;;4995681;28;20081;-88
2023/01/22 00:51:49;;;;;;;34.73;17.03;;;-1.50;99.90;;;;;;4992454;28;20078;-88
2023/01/22 00:54:17;;;;;;;35.63;16.83;;;-1.70;99.90;;;;;;4991765;28;20085;-88
2023/01/22 00:56:43;;;;;;;42.63;19.30;;;-2.10;99.90;;;;;;5017761;23;20062;-89
2023/01/22 00:59:09;;;;;;;38.80;19.57;;;-1.10;99.90;;;;;;4995536;28;20069;-89
2023/01/22 01:01:37;;;;;;;37.53;18.97;;;-1.90;99.90;;;;;;5012967;28;20212;-88
2023/01/22 01:04:03;;;;;;;37.07;19.10;;;-0.70;99.90;;;;;;5013720;28;20086;-88
2023/01/22 01:06:28;;;;;;;41.80;18.53;;;-0.80;99.90;;;;;;5013554;28;20123;-88
2023/01/22 01:08:54;;;;;;;38.00;18.13;;;-0.80;99.90;;;;;;4995003;28;20100;-89
2023/01/22 01:11:22;;;;;;;34.17;17.30;;;-1.00;99.90;;;;;;5012742;28;20091;-88
2023/01/22 01:14:03;;;;;;;39.63;17.47;;;-1.70;99.90;;;;;;5013113;28;20061;-89
2023/01/22 01:16:30;;;;;;;42.90;19.53;;;-0.30;99.90;;;;;;5012734;28;20050;-88
2023/01/22 01:19:04;;;;;;;37.57;19.50;;;-1.70;99.90;;;;;;4995502;28;20077;-88
2023/01/22 01:21:33;;;;;;;38.85;17.50;;;-1.30;99.90;;;;;;4998337;28;20556;-88
2023/01/22 01:24:09;;;;;;;35.70;17.30;;;-1.70;99.90;;;;;;5025263;28;20034;-88
2023/01/22 01:26:35;;;;;;;34.33;17.13;;;-1.70;99.90;;;;;;5014036;28;20091;-88
2023/01/22 01:29:03;;;;;;;37.03;17.43;;;0.50;99.90;;;;;;5000368;28;20045;-88
2023/01/22 01:31:29;;;;;;;36.23;17.57;;;-0.60;99.90;;;;;;4994981;28;20486;-88
2023/01/22 01:33:56;;;;;;;35.90;17.83;;;-1.50;99.90;;;;;;4995685;28;20049;-88
2023/01/22 01:36:23;;;;;;;33.93;16.40;;;0.80;99.90;;;;;;4998953;28;20045;-88
2023/01/22 01:38:50;;;;;;;32.17;14.90;;;-0.70;99.90;;;;;;5017159;28;20532;-88
2023/01/22 01:41:21;;;;;;;38.13;17.67;;;-0.70;99.90;;;;;;5016985;28;20050;-88
2023/01/22 01:44:05;;;;;;;37.57;17.70;;;0.90;99.90;;;;;;4998850;28;20042;-87
2023/01/22 01:46:39;;;;;;;35.23;17.23;;;-1.50;99.90;;;;;;5016654;28;20045;-88
2023/01/22 01:49:09;;;;;;;31.20;15.23;;;-1.40;99.90;;;;;;4998748;28;20049;-88
2023/01/22 01:54:26;;;;;;;33.47;15.87;;;-1.10;99.90;;;;;;5067903;23;20135;-88
2023/01/22 01:56:57;;;;;;;36.33;16.40;;;-0.80;99.90;;;;;;5016383;28;20073;-88
2023/01/22 01:59:23;;;;;;;32.13;15.80;;;-1.70;99.90;;;;;;5032466;28;20030;-88
2023/01/22 02:01:55;;;;;;;29.93;13.93;;;-1.50;99.90;;;;;;5019583;28;20081;-88
2023/01/22 02:04:24;;;;;;;30.57;14.00;;;-1.90;99.90;;;;;;4999062;28;20077;-87
2023/01/22 02:06:49;;;;;;;29.57;14.03;;;0.10;99.90;;;;;;5015752;28;20042;-88
2023/01/22 02:09:19;;;;;;;29.23;14.20;;;-1.40;99.90;;;;;;5015864;28;20050;-88
2023/01/22 02:11:53;;;;;;;29.20;14.10;;;-1.40;99.90;;;;;;4997791;28;20096;-88
2023/01/22 02:14:30;;;;;;;29.17;14.20;;;-0.70;99.90;;;;;;5016053;28;20058;-87
2023/01/22 02:17:26;;;;;;;26.93;13.50;;;0.30;99.90;;;;;;4998466;28;20210;-88
2023/01/22 02:20:01;;;;;;;26.67;13.07;;;-0.90;99.90;;;;;;4981644;28;20054;-88
2023/01/22 02:22:45;;;;;;;25.40;12.53;;;-0.60;99.90;;;;;;5015823;28;20074;-88
2023/01/22 02:25:22;;;;;;;23.58;12.75;;;0.20;99.90;;;;;;5015356;28;20042;-88
2023/01/22 02:27:51;;;;;;;23.70;12.17;;;-1.40;99.90;;;;;;4997712;28;20048;-88
2023/01/22 02:30:17;;;;;;;24.13;12.27;;;-0.70;99.90;;;;;;5015016;28;20375;-87
2023/01/22 02:32:42;;;;;;;24.07;12.17;;;-0.60;99.90;;;;;;4996958;28;20171;-87
2023/01/22 02:35:20;;;;;;;23.50;12.03;;;-0.80;99.90;;;;;;5005933;28;20037;-88
2023/01/22 02:37:55;;;;;;;21.80;11.77;;;-1.40;99.90;;;;;;5022174;28;20073;-88
2023/01/22 02:40:47;;;;;;;19.90;10.67;;;-0.40;99.90;;;;;;4997518;28;20141;-88
2023/01/22 02:43:13;;;;;;;18.63;10.40;;;0.30;99.90;;;;;;4997973;28;20077;-88
2023/01/22 02:45:39;;;;;;;21.93;10.40;;;-1.60;99.90;;;;;;5015623;28;20096;-87
2023/01/22 02:48:05;;;;;;;19.73;10.63;;;-0.40;99.90;;;;;;4997565;28;20050;-87
2023/01/22 02:50:40;;;;;;;19.77;11.10;;;0.00;99.90;;;;;;4998147;28;20050;-87
2023/01/22 02:53:06;;;;;;;23.30;11.27;;;-0.10;99.90;;;;;;4997659;28;20100;-87
2023/01/22 02:55:34;;;;;;;20.93;10.07;;;-1.10;99.90;;;;;;5014958;28;20081;-88
2023/01/22 02:58:00;;;;;;;21.70;10.60;;;0.90;99.90;;;;;;4997594;28;20137;-88
2023/01/22 03:00:25;;;;;;;20.37;10.13;;;-0.70;99.90;;;;;;5015239;28;20142;-88
2023/01/22 03:02:58;;;;;;;18.77;9.90;;;-0.30;99.90;;;;;;5000328;28;20417;-88
2023/01/22 03:05:33;;;;;;;19.17;9.73;;;-0.30;99.90;;;;;;5016427;28;20034;-88
2023/01/22 03:08:18;;;;;;;18.80;10.33;;;1.70;99.90;;;;;;4997411;28;20046;-88
2023/01/22 03:10:50;;;;;;;17.97;9.40;;;0.20;99.90;;;;;;5002463;28;20026;-88
2023/01/22 03:22:36;;;;;;;19.53;9.73;;;1.20;99.90;;;;;;5000667;28;20478;-88
2023/01/22 03:25:11;;;;;;;18.33;10.20;;;-0.60;99.90;;;;;;4999193;28;20050;-88
2023/01/22 03:30:42;;;;;;;18.77;8.80;;;-0.30;99.90;;;;;;4996301;28;20042;-88
2023/01/22 03:33:07;;;;;;;16.60;8.93;;;-0.30;99.90;;;;;;4997547;28;20061;-87
2023/01/22 03:35:36;;;;;;;16.07;8.43;;;-0.80;99.90;;;;;;4997372;28;20077;-88
2023/01/22 03:38:02;;;;;;;18.40;9.33;;;1.00;99.90;;;;;;4997089;28;20060;-88
2023/01/22 03:40:36;;;;;;;16.63;8.73;;;-0.30;99.90;;;;;;5014679;28;20046;-88
2023/01/22 03:43:02;;;;;;;14.73;8.57;;;-0.60;99.90;;;;;;4996822;28;20359;-88
2023/01/22 03:45:27;;;;;;;16.70;9.47;;;0.80;99.90;;;;;;5014409;28;20129;-88
2023/01/22 03:48:02;;;;;;;19.07;9.80;;;0.00;99.90;;;;;;5017973;28;20065;-89
2023/01/22 03:50:28;;;;;;;16.40;8.47;;;-0.30;99.90;;;;;;5008230;28;20527;-88
2023/01/22 03:53:02;;;;;;;19.33;10.40;;;1.60;99.90;;;;;;4997370;28;20085;-88
2023/01/22 03:55:36;;;;;;;16.17;9.03;;;1.10;99.90;;;;;;5013808;28;20997;-88
2023/01/22 03:58:20;;;;;;;17.37;8.57;;;-0.10;99.90;;;;;;5014219;28;20046;-88
2023/01/22 04:00:47;;;;;;;17.50;8.73;;;-0.60;99.90;;;;;;5014166;28;20049;-88
2023/01/22 04:03:28;;;;;;;18.50;8.77;;;-0.20;99.90;;;;;;5014424;28;20064;-88
2023/01/22 04:06:04;;;;;;;15.20;8.83;;;0.50;99.90;;;;;;4996274;28;20107;-88
2023/01/22 04:08:43;;;;;;;15.63;8.63;;;-0.30;99.90;;;;;;4996854;28;20053;-88
2023/01/22 04:11:24;;;;;;;16.17;8.90;;;0.90;99.90;;;;;;5013864;28;20049;-88
2023/01/22 04:14:08;;;;;;;15.17;9.77;;;0.00;99.90;;;;;;5014326;28;20485;-88
2023/01/22 04:16:45;;;;;;;17.17;9.18;;;0.60;99.90;;;;;;5014409;28;20077;-88
2023/01/22 04:19:19;;;;;;;17.03;9.53;;;1.40;99.90;;;;;;5012864;28;20046;-88
2023/01/22 04:21:56;;;;;;;;;;;-0.10;99.90;;;;;;4997298;28;20474;-88
2023/01/22 04:24:22;;;;;;;17.23;9.80;;;0.00;99.90;;;;;;5000527;28;19948;-88
2023/01/22 04:26:51;;;;;;;16.63;9.27;;;-0.20;99.90;;;;;;5033363;28;20042;-88
2023/01/22 04:29:29;;;;;;;16.23;9.33;;;-0.60;99.90;;;;;;5000406;28;20104;-88
2023/01/22 04:32:14;;;;;;;14.23;9.33;;;-0.20;99.90;;;;;;4996565;28;20048;-88
2023/01/22 04:34:40;;;;;;;16.30;9.30;;;-1.40;99.90;;;;;;5014429;28;20140;-88
2023/01/22 04:37:24;;;;;;;15.50;9.32;;;0.30;99.90;;;;;;5013224;28;20056;-88
2023/01/22 04:39:58;;;;;;;15.03;9.83;;;-0.30;99.90;;;;;;5001463;28;20077;-88
2023/01/22 04:42:39;;;;;;;15.23;9.18;;;0.00;99.90;;;;;;4997140;28;20144;-88
2023/01/22 04:45:20;;;;;;;17.07;10.40;;;-0.10;99.90;;;;;;5014138;28;20038;-88
2023/01/22 04:48:07;;;;;;;14.33;9.40;;;-0.30;99.90;;;;;;4999790;28;20053;-89
2023/01/22 04:50:39;;;;;;;15.20;9.40;;;-0.30;99.90;;;;;;4996204;28;20084;-88
2023/01/22 04:53:04;;;;;;;18.07;9.53;;;1.30;99.90;;;;;;5005161;28;20109;-88
2023/01/22 04:55:36;;;;;;;17.57;10.10;;;-0.20;99.90;;;;;;4975341;28;20479;-87
2023/01/22 04:58:05;;;;;;;14.63;9.13;;;1.90;99.90;;;;;;4976493;28;20057;-88
2023/01/22 05:00:42;;;;;;;14.87;9.40;;;0.90;99.90;;;;;;4976839;28;20123;-88
2023/01/22 05:03:29;;;;;;;15.17;9.20;;;0.60;99.90;;;;;;5013133;28;20124;-88
2023/01/22 05:06:07;;;;;;;14.80;8.70;;;0.40;99.90;;;;;;4976443;28;20061;-88
2023/01/22 05:08:51;;;;;;;14.27;8.80;;;1.40;99.90;;;;;;4993437;28;20053;-88
2023/01/22 05:11:26;;;;;;;16.10;8.90;;;0.30;99.90;;;;;;4975485;28;20050;-88
2023/01/22 05:13:53;;;;;;;14.83;8.70;;;1.10;99.90;;;;;;4993397;28;20042;-88
2023/01/22 05:16:19;;;;;;;14.90;8.83;;;0.50;99.90;;;;;;4974886;28;20105;-87
2023/01/22 05:18:45;;;;;;;17.00;8.67;;;1.20;99.90;;;;;;4976111;28;20446;-88
2023/01/22 05:21:14;;;;;;;14.40;8.53;;;-0.50;99.90;;;;;;4975745;28;20383;-88
2023/01/22 05:23:45;;;;;;;14.57;8.40;;;1.20;99.90;;;;;;4975349;28;20395;-88
2023/01/22 05:26:30;;;;;;;14.33;8.03;;;1.30;99.90;;;;;;4993101;28;20038;-88
2023/01/22 05:28:56;;;;;;;15.90;8.60;;;-0.20;99.90;;;;;;4993111;28;20082;-88
2023/01/22 05:31:27;;;;;;;14.50;8.03;;;-0.30;99.90;;;;;;4975456;28;20074;-88
2023/01/22 05:34:03;;;;;;;13.13;8.03;;;-0.40;99.90;;;;;;4976196;28;20042;-88
2023/01/22 05:36:40;;;;;;;15.47;7.80;;;0.50;99.90;;;;;;4994440;28;20405;-88
2023/01/22 05:39:06;;;;;;;14.90;8.10;;;1.50;99.90;;;;;;5011065;28;20068;-88
2023/01/22 05:41:35;;;;;;;14.20;8.00;;;-0.70;99.90;;;;;;4995123;28;20475;-88
2023/01/22 05:44:19;;;;;;;14.40;7.23;;;-0.40;99.90;;;;;;4993135;28;20070;-88
2023/01/22 05:46:54;;;;;;;14.27;8.07;;;1.90;99.90;;;;;;4993547;28;20043;-88
2023/01/22 05:49:44;;;;;;;14.30;8.23;;;-0.40;99.90;;;;;;5000110;23;20054;-89
2023/01/22 05:52:10;;;;;;;13.57;7.90;;;-0.10;99.90;;;;;;4975055;28;20038;-89
2023/01/22 05:54:39;;;;;;;14.97;7.90;;;0.30;99.90;;;;;;4975792;28;20039;-89
2023/01/22 05:57:05;;;;;;;13.97;7.93;;;-0.10;99.90;;;;;;4974597;28;20046;-88
2023/01/22 05:59:39;;;;;;;15.23;8.60;;;0.10;99.90;;;;;;4992596;28;20046;-88
2023/01/22 06:02:11;;;;;;;15.03;8.97;;;-0.30;99.90;;;;;;4975669;28;20054;-88
2023/01/22 06:04:40;;;;;;;15.20;8.60;;;-0.70;99.90;;;;;;4975138;28;20057;-88
2023/01/22 06:07:21;;;;;;;17.67;9.30;;;1.00;99.90;;;;;;4975727;28;20039;-88
2023/01/22 06:10:02;;;;;;;16.33;9.50;;;0.30;99.90;;;;;;4975954;28;20056;-88
2023/01/22 06:12:39;;;;;;;16.13;8.77;;;-0.20;99.90;;;;;;4974383;28;20129;-88
2023/01/22 06:15:14;;;;;;;15.30;8.63;;;0.30;99.90;;;;;;5013922;23;20045;-88
2023/01/22 06:17:39;;;;;;;15.23;8.93;;;1.90;99.90;;;;;;4998405;28;20069;-88
2023/01/22 06:20:14;;;;;;;15.30;8.87;;;-0.50;99.90;;;;;;4995660;28;20486;-88
2023/01/22 06:22:50;;;;;;;15.30;8.27;;;0.10;99.90;;;;;;5013710;28;20060;-88
2023/01/22 06:25:16;;;;;;;14.83;8.37;;;0.90;99.90;;;;;;5038358;28;20069;-88
2023/01/22 06:27:45;;;;;;;19.00;8.60;;;2.40;99.90;;;;;;5016841;28;20042;-88
2023/01/22 06:30:10;;;;;;;14.70;8.57;;;0.20;99.90;;;;;;5016201;28;20486;-88
2023/01/22 06:32:39;;;;;;;14.23;8.27;;;-0.20;99.90;;;;;;5035583;28;20022;-88
2023/01/22 06:35:08;;;;;;;14.83;8.53;;;-0.50;99.90;;;;;;5019117;28;20038;-87
2023/01/22 06:37:50;;;;;;;15.10;8.03;;;-0.20;99.90;;;;;;5004549;28;20041;-88
2023/01/22 06:40:34;;;;;;;14.37;8.37;;;-0.30;99.90;;;;;;5020243;28;20053;-89
2023/01/22 06:43:09;;;;;;;15.95;8.50;;;0.70;99.90;;;;;;5018221;28;20045;-88
2023/01/22 06:45:43;;;;;;;15.10;8.57;;;0.30;99.90;;;;;;5017970;28;20058;-88
2023/01/22 06:48:09;;;;;;;16.90;8.60;;;-0.50;99.90;;;;;;4999482;28;20092;-88
2023/01/22 06:50:37;;;;;;;13.90;8.33;;;-0.10;99.90;;;;;;5003033;28;20505;-88
2023/01/22 06:53:03;;;;;;;14.67;8.13;;;1.00;99.90;;;;;;5014687;28;20042;-88
2023/01/22 06:55:32;;;;;;;14.70;8.20;;;0.40;99.90;;;;;;5019179;28;20058;-88
2023/01/22 06:57:58;;;;;;;16.63;8.73;;;0.90;99.90;;;;;;5000150;28;20137;-88
2023/01/22 07:00:36;;;;;;;17.13;8.57;;;0.70;99.90;;;;;;4998648;28;20069;-88
2023/01/22 07:03:14;;;;;;;15.00;8.70;;;0.30;99.90;;;;;;5001546;28;20105;-88
2023/01/22 07:05:40;;;;;;;15.47;8.57;;;-0.90;99.90;;;;;;5000368;28;20054;-88
2023/01/22 07:08:16;;;;;;;14.87;8.63;;;-0.90;99.90;;;;;;5000284;28;20054;-88
2023/01/22 07:10:44;;;;;;;14.67;8.47;;;0.30;99.90;;;;;;5000305;28;20133;-88
2023/01/22 07:13:10;;;;;;;16.20;9.13;;;-1.30;99.90;;;;;;5002151;28;20057;-88
2023/01/22 07:15:39;;;;;;;15.47;9.10;;;-0.60;99.90;;;;;;5017604;28;20150;-88
2023/01/22 07:18:04;;;;;;;15.30;9.87;;;-0.70;99.90;;;;;;4998966;28;20081;-88
2023/01/22 07:20:49;;;;;;;17.77;9.63;;;-0.50;99.90;;;;;;5017300;28;20077;-89
2023/01/22 07:23:15;;;;;;;16.07;9.47;;;0.70;99.90;;;;;;5016542;28;20034;-87
2023/01/22 07:25:56;;;;;;;17.30;9.27;;;0.60;99.90;;;;;;5015433;28;20042;-83
2023/01/22 07:28:22;;;;;;;18.17;9.37;;;-0.70;99.90;;;;;;4995725;28;20049;-84
2023/01/22 07:30:48;;;;;;;15.27;9.40;;;-0.50;99.90;;;;;;4997806;28;20045;-82
2023/01/22 07:33:14;;;;;;;16.10;9.57;;;-0.50;99.90;;;;;;4998173;28;20037;-84
2023/01/22 07:35:41;;;;;;;16.60;9.70;;;-0.50;99.90;;;;;;4996548;28;20042;-84
2023/01/22 07:38:07;;;;;;;15.73;9.73;;;-0.50;99.90;;;;;;4997723;28;20049;-84
2023/01/22 07:40:33;;;;;;;16.77;10.10;;;-0.50;99.90;;;;;;4997736;28;20136;-83
2023/01/22 07:42:59;;;;;;;16.80;9.97;;;-0.40;99.90;;;;;;4996562;28;20133;-84
2023/01/22 07:45:25;;;;;;;16.07;9.70;;;-0.40;99.90;;;;;;4997091;28;20061;-83
2023/01/22 07:47:55;;;;;;;16.07;9.80;;;-0.40;99.90;;;;;;5017289;28;20108;-82
2023/01/22 07:50:22;;;;;;;16.37;10.13;;;-0.40;99.90;;;;;;5016194;28;20098;-83
2023/01/22 07:52:48;;;;;;;15.97;10.17;;;-0.40;99.90;;;;;;5021140;28;20121;-83
2023/01/22 07:55:14;;;;;;;15.07;9.77;;;-0.40;99.90;;;;;;5017347;28;20524;-83
2023/01/22 07:57:40;;;;;;;16.83;10.87;;;-0.30;99.90;;;;;;5016023;28;20075;-83
2023/01/22 08:00:11;;;;;;;15.90;9.80;;;-0.40;99.90;;;;;;5001482;28;20054;-83
2023/01/22 08:02:38;;;;;;;16.27;9.63;;;-0.30;99.90;;;;;;5000420;28;20176;-83
2023/01/22 08:05:05;;;;;;;15.93;9.70;;;-0.40;99.90;;;;;;4997898;28;20046;-83
2023/01/22 08:07:31;;;;;;;15.43;9.03;;;-0.30;99.90;;;;;;5015701;28;20085;-83
2023/01/22 08:09:57;;;;;;;17.33;10.20;;;-0.40;99.90;;;;;;4998821;28;20046;-84
2023/01/22 08:12:22;;;;;;;16.17;8.83;;;-0.30;99.90;;;;;;4997587;28;20100;-82
2023/01/22 08:14:48;;;;;;;15.77;9.10;;;0.80;99.90;;;;;;5005316;23;20054;-83
2023/01/22 08:17:14;;;;;;;15.40;9.37;;;-0.30;99.90;;;;;;5014551;28;20052;-83
2023/01/22 08:19:40;;;;;;;14.47;8.73;;;-0.30;99.90;;;;;;5015653;28;20038;-83
2023/01/22 08:22:05;;;;;;;15.90;9.13;;;-0.30;99.90;;;;;;4997800;28;20600;-83
2023/01/22 08:24:33;;;;;;;16.23;8.20;;;-0.20;99.90;;;;;;4997001;28;20059;-83
2023/01/22 08:26:59;;;;;;;16.17;8.80;;;-0.20;99.90;;;;;;4997416;28;20099;-83
2023/01/22 08:29:24;;;;;;;15.40;8.63;;;-0.20;99.90;;;;;;5014764;28;20050;-83
2023/01/22 08:31:51;;;;;;;15.53;8.37;;;-0.20;99.90;;;;;;5014028;28;20061;-82
2023/01/22 08:34:29;;;;;;;17.47;8.60;;;-0.20;99.90;;;;;;4976337;23;20105;-84
2023/01/22 08:36:55;;;;;;;15.37;8.90;;;0.00;99.90;;;;;;4980344;28;20050;-85
2023/01/22 08:39:35;;;;;;;14.97;8.57;;;-0.40;99.90;;;;;;4961633;28;20503;-85
2023/01/22 08:42:01;;;;;;;15.53;9.30;;;1.60;99.90;;;;;;4964992;28;20155;-84
2023/01/22 08:44:39;;;;;;;15.40;9.07;;;-0.40;99.90;;;;;;4962481;28;20559;-83
2023/01/22 08:47:10;;;;;;;16.87;9.03;;;-0.40;99.90;;;;;;4963159;28;20055;-84
2023/01/22 08:49:50;;;;;;;16.10;9.13;;;-0.30;99.90;;;;;;4963002;28;20051;-83
2023/01/22 08:52:16;;;;;;;15.40;8.53;;;0.30;99.90;;;;;;4981308;28;20050;-83
2023/01/22 08:54:56;;;;;;;14.60;8.50;;;0.00;99.90;;;;;;4962817;28;20498;-82
2023/01/22 08:57:22;;;;;;;16.10;9.00;;;0.00;99.90;;;;;;4985414;28;20142;-82
2023/01/22 08:59:47;;;;;;;16.63;9.60;;;-0.20;99.90;;;;;;4962881;28;20046;-82
2023/01/22 09:02:13;;;;;;;15.53;9.43;;;-0.30;99.90;;;;;;5023372;23;20057;-83
2023/01/22 09:04:39;;;;;;;15.50;9.47;;;0.00;99.90;;;;;;4963865;28;20039;-83
2023/01/22 09:07:04;;;;;;;15.37;9.30;;;0.00;99.90;;;;;;4962989;28;20046;-82
2023/01/22 09:09:30;;;;;;;17.13;10.07;;;0.00;99.90;;;;;;4982219;28;20047;-82
2023/01/22 09:11:56;;;;;;;16.93;10.20;;;0.00;99.90;;;;;;4961788;28;20043;-82
2023/01/22 09:14:21;;;;;;;17.10;9.50;;;0.00;99.90;;;;;;4981165;28;20482;-82
2023/01/22 09:16:47;;;;;;;17.00;10.00;;;0.60;99.90;;;;;;4978731;28;20046;-82
2023/01/22 09:19:12;;;;;;;16.27;9.83;;;0.10;99.90;;;;;;4979307;28;20038;-83
2023/01/22 09:21:39;;;;;;;16.57;9.63;;;0.10;99.90;;;;;;5056882;23;20143;-82
2023/01/22 09:24:05;;;;;;;17.20;10.17;;;0.10;99.90;;;;;;4975352;28;20163;-83
2023/01/22 09:26:31;;;;;;;16.70;10.37;;;0.20;99.90;;;;;;4975270;28;20129;-83
2023/01/22 09:29:03;;;;;;;17.90;9.97;;;0.20;99.90;;;;;;5033424;23;20057;-84
2023/01/22 09:31:29;;;;;;;15.30;9.67;;;0.20;99.90;;;;;;4995959;28;20122;-82
2023/01/22 09:33:54;;;;;;;16.37;10.63;;;0.20;99.90;;;;;;4976215;28;20054;-83
2023/01/22 09:36:20;;;;;;;16.03;10.17;;;0.20;99.90;;;;;;4992554;28;20054;-83
2023/01/22 09:38:46;;;;;;;24.70;16.10;;;0.20;99.90;;;;;;4981529;28;20046;-83
2023/01/22 09:41:36;;;;;;;25.70;14.63;;;0.20;99.90;;;;;;4983099;28;20081;-82
2023/01/22 09:44:14;;;;;;;25.10;15.70;;;0.30;99.90;;;;;;4988109;28;20435;-83
2023/01/22 09:46:42;;;;;;;18.57;11.13;;;0.60;99.90;;;;;;4976514;28;20085;-83
2023/01/22 09:49:20;;;;;;;17.60;10.13;;;0.30;99.90;;;;;;4992324;28;20108;-83
2023/01/22 09:51:53;;;;;;;17.67;10.80;;;0.30;99.90;;;;;;4993408;28;20089;-83
2023/01/22 09:54:19;;;;;;;16.45;9.73;;;0.30;99.90;;;;;;4975625;28;20046;-84
2023/01/22 09:56:57;;;;;;;16.80;10.30;;;0.30;99.90;;;;;;5001473;23;20054;-84
2023/01/22 09:59:55;;;;;;;17.40;9.87;;;0.30;99.90;;;;;;4986613;28;20049;-83
2023/01/22 10:03:12;;;;;;;16.27;9.70;;;0.40;99.90;;;;;;4991258;28;20101;-84
2023/01/22 10:05:42;;;;;;;17.07;9.93;;;-0.20;99.90;;;;;;4989089;28;20042;-84
2023/01/22 10:08:18;;;;;;;16.43;10.30;;;1.40;99.90;;;;;;4994325;28;20053;-85
2023/01/22 10:10:44;;;;;;;15.83;9.77;;;0.30;99.90;;;;;;4972418;28;20433;-85
2023/01/22 10:13:22;;;;;;;17.53;9.73;;;0.30;99.90;;;;;;4977949;28;20112;-84
2023/01/22 10:15:51;;;;;;;16.27;10.43;;;0.30;99.90;;;;;;4989946;28;20061;-85
2023/01/22 10:18:26;;;;;;;16.23;9.87;;;0.30;99.90;;;;;;4959503;28;20466;-84
2023/01/22 10:20:54;;;;;;;16.30;10.00;;;0.30;99.90;;;;;;4959165;28;20046;-85
2023/01/22 10:23:29;;;;;;;17.63;10.60;;;0.30;99.90;;;;;;4976552;28;20491;-84
2023/01/22 10:26:25;;;;;;;16.03;9.40;;;0.30;99.90;;;;;;4959291;28;20053;-85
2023/01/22 10:28:55;;;;;;;20.93;12.30;;;0.30;99.90;;;;;;4937619;28;20113;-85
2023/01/22 10:31:26;;;;;;;18.90;11.30;;;0.30;99.90;;;;;;4965370;28;20487;-83
2023/01/22 10:34:00;;;;;;;19.10;12.40;;;0.30;99.90;;;;;;4978166;28;20500;-84
2023/01/22 10:36:29;;;;;;;;;;;0.30;99.90;;;;;;4965191;28;20510;-83
2023/01/22 10:39:15;;;;;;;15.67;9.00;;;0.30;99.90;;;;;;4970713;28;20499;-84
2023/01/22 10:41:42;;;;;;;21.10;11.17;;;0.30;99.90;;;;;;4970887;28;20343;-84
2023/01/22 10:44:23;;;;;;;18.13;11.10;;;0.30;99.90;;;;;;4985364;28;20132;-84
2023/01/22 10:49:32;;;;;;;16.97;10.63;;;0.30;99.90;;;;;;4987355;28;20038;-84
2023/01/22 10:51:59;;;;;;;20.50;10.63;;;0.00;99.90;;;;;;4988076;28;20042;-83
2023/01/22 10:58:17;;;;;;;17.77;10.47;;;0.40;99.90;;;;;;4997767;23;20050;-83
2023/01/22 11:01:30;;;;;;;17.30;9.83;;;0.00;99.90;;;;;;4983478;28;20046;-83
2023/01/22 11:04:51;;;;;;;17.03;9.90;;;0.70;99.90;;;;;;4940257;28;20054;-83
2023/01/22 11:07:32;;;;;;;17.93;10.23;;;0.40;99.90;;;;;;4995006;28;20047;-83
2023/01/22 11:10:37;;;;;;;15.80;9.53;;;-0.10;99.90;;;;;;5007092;28;20039;-83
2023/01/22 11:13:34;;;;;;;18.10;10.70;;;0.40;99.90;;;;;;4922881;29;20054;-83
2023/01/22 11:16:07;;;;;;;16.30;9.50;;;1.00;99.90;;;;;;4921927;29;20488;-82
2023/01/22 11:19:11;;;;;;;17.52;10.05;;;0.40;99.90;;;;;;4962065;28;20065;-83
2023/01/22 11:21:33;;;;;;;19.80;10.77;;;0.20;99.90;;;;;;4969698;28;20054;-83
2023/01/22 11:24:37;;;;;;;18.13;10.40;;;0.70;99.90;;;;;;4968836;28;20050;-83
2023/01/22 11:27:24;;;;;;;19.65;10.60;;;0.90;99.90;;;;;;4969492;28;20039;-83
2023/01/22 11:29:58;;;;;;;17.93;9.93;;;0.60;99.90;;;;;;4987414;28;20054;-83
2023/01/22 11:32:57;;;;;;;17.67;9.53;;;1.40;99.90;;;;;;4969281;28;20057;-83
2023/01/22 11:35:50;;;;;;;18.30;10.20;;;0.70;99.90;;;;;;4968647;28;20046;-83
2023/01/22 11:38:17;;;;;;;20.07;9.10;;;0.70;99.90;;;;;;4975027;28;20120;-83
2023/01/22 11:41:10;;;;;;;17.37;9.73;;;0.70;99.90;;;;;;4987241;28;20034;-83
2023/01/22 11:44:00;;;;;;;21.87;10.10;;;0.80;99.90;;;;;;4980801;28;20042;-83
2023/01/22 11:46:38;;;;;;;16.60;9.77;;;0.80;99.90;;;;;;4984747;28;20080;-83
2023/01/22 11:49:24;;;;;;;17.90;9.73;;;0.80;99.90;;;;;;4965866;28;20155;-83
2023/01/22 11:51:50;;;;;;;16.00;9.30;;;0.80;99.90;;;;;;4967740;28;20073;-83
2023/01/22 11:54:26;;;;;;;18.40;10.07;;;0.80;99.90;;;;;;4976848;28;20494;-82
2023/01/22 11:56:58;;;;;;;20.30;10.07;;;0.80;99.90;;;;;;4975372;28;20062;-82
2023/01/22 11:59:45;;;;;;;17.70;10.23;;;0.80;99.90;;;;;;4976550;28;20042;-82
2023/01/22 12:02:32;;;;;;;17.20;10.17;;;0.80;99.90;;;;;;4976485;28;20496;-82
2023/01/22 12:04:58;;;;;;;17.50;9.70;;;0.80;99.90;;;;;;4976918;28;20054;-82
2023/01/22 12:07:30;;;;;;;18.83;9.67;;;0.80;99.90;;;;;;4994330;28;20056;-82
2023/01/22 12:10:02;;;;;;;17.70;9.60;;;0.80;99.90;;;;;;4976366;28;20046;-82
2023/01/22 12:12:41;;;;;;;18.93;9.70;;;0.70;99.90;;;;;;4973330;28;20073;-82
2023/01/22 12:15:09;;;;;;;20.03;10.60;;;0.80;99.90;;;;;;4986190;28;20101;-82
2023/01/22 12:17:54;;;;;;;17.67;9.50;;;0.80;99.90;;;;;;4980255;28;20057;-82
2023/01/22 12:20:28;;;;;;;21.40;10.83;;;0.80;99.90;;;;;;4979473;28;20042;-82
2023/01/22 12:23:23;;;;;;;18.97;9.37;;;0.80;99.90;;;;;;4984003;28;20053;-82
2023/01/22 12:26:22;;;;;;;17.83;9.43;;;0.80;99.90;;;;;;4974962;28;20552;-83
2023/01/22 12:28:56;;;;;;;17.03;9.43;;;0.80;99.90;;;;;;4946530;28;20112;-82
2023/01/22 12:31:34;;;;;;;18.67;9.73;;;0.90;99.90;;;;;;4970304;28;20051;-82
2023/01/22 12:34:04;;;;;;;17.40;9.50;;;0.90;99.90;;;;;;4968249;28;20137;-82
2023/01/22 12:36:31;;;;;;;18.03;9.57;;;0.90;99.90;;;;;;4969443;28;20046;-82
2023/01/22 12:39:08;;;;;;;18.13;9.20;;;0.90;99.90;;;;;;4980657;28;20376;-82
2023/01/22 12:41:46;;;;;;;18.17;9.50;;;0.90;99.90;;;;;;4973102;28;20043;-82
2023/01/22 12:44:45;;;;;;;18.17;9.60;;;0.90;99.90;;;;;;4976821;28;20046;-82
2023/01/22 12:47:19;;;;;;;18.23;9.40;;;0.90;99.90;;;;;;4989618;28;20603;-82
2023/01/22 12:49:50;;;;;;;17.70;9.80;;;0.90;99.90;;;;;;4979866;28;20089;-82
2023/01/22 12:52:26;;;;;;;20.27;11.23;;;0.90;99.90;;;;;;4974398;28;20111;-82
2023/01/22 12:54:55;;;;;;;17.47;9.03;;;0.90;99.90;;;;;;5001580;28;20038;-82
2023/01/22 12:57:23;;;;;;;18.30;10.33;;;0.90;99.90;;;;;;4961883;28;20513;-82
2023/01/22 12:59:54;;;;;;;18.27;9.93;;;0.90;99.90;;;;;;4968278;28;20513;-82
2023/01/22 13:02:29;;;;;;;20.00;10.37;;;0.90;99.90;;;;;;4987748;28;20178;-82
2023/01/22 13:05:08;;;;;;;18.17;9.77;;;1.00;99.90;;;;;;4983459;28;20061;-82
2023/01/22 13:07:36;;;;;;;16.50;9.27;;;1.10;99.90;;;;;;4967871;28;20034;-82
2023/01/22 13:10:28;;;;;;;17.40;9.60;;;1.00;99.90;;;;;;4968437;28;20037;-83
2023/01/22 13:13:02;;;;;;;15.17;8.57;;;1.00;99.90;;;;;;4965201;28;20086;-82
2023/01/22 13:15:35;;;;;;;16.63;9.00;;;0.90;99.90;;;;;;4956658;28;20050;-84
2023/01/22 13:18:01;;;;;;;18.88;9.00;;;1.00;99.90;;;;;;4957280;28;20042;-84
2023/01/22 13:20:29;;;;;;;17.67;9.10;;;0.90;99.90;;;;;;4972908;28;20565;-84
2023/01/22 13:22:57;;;;;;;16.27;9.33;;;0.90;99.90;;;;;;4957325;28;20499;-84
2023/01/22 13:25:28;;;;;;;17.93;9.37;;;1.00;99.90;;;;;;4956962;28;20039;-84
2023/01/22 13:27:56;;;;;;;19.77;11.67;;;1.00;99.90;;;;;;4974054;28;20165;-84
2023/01/22 13:30:29;;;;;;;25.50;15.13;;;1.00;99.90;;;;;;4956537;28;20093;-84
2023/01/22 13:33:25;;;;;;;19.17;11.30;;;1.00;99.90;;;;;;4975222;28;20047;-84